sensor_id;sensor_type;location;lat;lon;timestamp;pressure;altitude;pressure_sealevel;temperature;humidity
45247;BME280;31529;51.158;7.354;2022-07-05T00:00:04;98387.31;;;17.92;59.25
45247;BME280;31529;51.158;7.354;2022-07-05T00:00:41;98385.75;;;17.91;59.81
45247;BME280;31529;51.158;7.354;2022-07-05T00:01:17;98387.97;;;17.89;59.52
45247;BME280;31529;51.158;7.354;2022-07-05T00:01:53;98389.84;;;17.89;59.30
45247;BME280;31529;51.158;7.354;2022-07-05T00:02:29;98372.06;;;17.79;59.66
45247;BME280;31529;51.158;7.354;2022-07-05T00:03:05;98385.44;;;17.84;59.87
45247;BME280;31529;51.158;7.354;2022-07-05T00:03:41;98392.72;;;17.84;59.98
45247;BME280;31529;51.158;7.354;2022-07-05T00:04:16;98388.72;;;17.81;60.08
45247;BME280;31529;51.158;7.354;2022-07-05T00:04:52;98386.69;;;17.78;59.86
45247;BME280;31529;51.158;7.354;2022-07-05T00:05:28;98384.63;;;17.75;60.33
45247;BME280;31529;51.158;7.354;2022-07-05T00:06:04;98381.75;;;17.71;59.73
45247;BME280;31529;51.158;7.354;2022-07-05T00:06:40;98385.91;;;17.69;60.15
45247;BME280;31529;51.158;7.354;2022-07-05T00:07:36;98388.75;;;17.64;60.43
45247;BME280;31529;51.158;7.354;2022-07-05T00:08:12;98385.13;;;17.60;60.57
45247;BME280;31529;51.158;7.354;2022-07-05T00:08:48;98386.56;;;17.57;60.67
45247;BME280;31529;51.158;7.354;2022-07-05T00:09:24;98385.25;;;17.54;60.67
45247;BME280;31529;51.158;7.354;2022-07-05T00:10:00;98391.00;;;17.53;60.95
45247;BME280;31529;51.158;7.354;2022-07-05T00:10:37;98387.03;;;17.50;61.00
45247;BME280;31529;51.158;7.354;2022-07-05T00:11:13;98381.94;;;17.49;60.97
45247;BME280;31529;51.158;7.354;2022-07-05T00:11:49;98383.38;;;17.46;61.10
45247;BME280;31529;51.158;7.354;2022-07-05T00:12:26;98384.47;;;17.45;61.40
45247;BME280;31529;51.158;7.354;2022-07-05T00:13:06;98381.31;;;17.43;61.49
45247;BME280;31529;51.158;7.354;2022-07-05T00:13:43;98390.53;;;17.42;61.95
45247;BME280;31529;51.158;7.354;2022-07-05T00:14:19;98391.97;;;17.40;62.10
45247;BME280;31529;51.158;7.354;2022-07-05T00:14:55;98389.56;;;17.38;61.92
45247;BME280;31529;51.158;7.354;2022-07-05T00:15:31;98381.00;;;17.36;61.73
45247;BME280;31529;51.158;7.354;2022-07-05T00:16:07;98384.81;;;17.35;61.74
45247;BME280;31529;51.158;7.354;2022-07-05T00:16:43;98377.03;;;17.33;62.01
45247;BME280;31529;51.158;7.354;2022-07-05T00:17:20;98386.56;;;17.31;61.99
45247;BME280;31529;51.158;7.354;2022-07-05T00:17:56;98382.25;;;17.30;62.55
45247;BME280;31529;51.158;7.354;2022-07-05T00:18:32;98385.28;;;17.28;62.26
45247;BME280;31529;51.158;7.354;2022-07-05T00:19:08;98380.22;;;17.27;62.33
45247;BME280;31529;51.158;7.354;2022-07-05T00:19:44;98380.03;;;17.23;62.03
45247;BME280;31529;51.158;7.354;2022-07-05T00:20:19;98374.97;;;17.22;62.35
45247;BME280;31529;51.158;7.354;2022-07-05T00:20:55;98382.56;;;17.20;62.74
45247;BME280;31529;51.158;7.354;2022-07-05T00:21:31;98385.59;;;17.18;62.40
45247;BME280;31529;51.158;7.354;2022-07-05T00:22:07;98380.84;;;17.15;62.45
45247;BME280;31529;51.158;7.354;2022-07-05T00:22:43;98379.56;;;17.12;63.16
45247;BME280;31529;51.158;7.354;2022-07-05T00:23:19;98380.19;;;17.09;62.96
45247;BME280;31529;51.158;7.354;2022-07-05T00:23:55;98383.53;;;17.06;63.05
45247;BME280;31529;51.158;7.354;2022-07-05T00:24:31;98384.13;;;17.03;63.19
45247;BME280;31529;51.158;7.354;2022-07-05T00:25:08;98384.78;;;17.00;63.30
45247;BME280;31529;51.158;7.354;2022-07-05T00:25:44;98385.09;;;16.98;62.80
45247;BME280;31529;51.158;7.354;2022-07-05T00:26:20;98381.91;;;16.96;62.78
45247;BME280;31529;51.158;7.354;2022-07-05T00:26:56;98380.31;;;16.95;63.19
45247;BME280;31529;51.158;7.354;2022-07-05T00:27:32;98377.16;;;16.93;63.27
45247;BME280;31529;51.158;7.354;2022-07-05T00:28:07;98378.28;;;16.92;62.87
45247;BME280;31529;51.158;7.354;2022-07-05T00:28:43;98382.84;;;16.92;63.05
45247;BME280;31529;51.158;7.354;2022-07-05T00:29:19;98382.84;;;16.92;63.15
45247;BME280;31529;51.158;7.354;2022-07-05T00:29:55;98377.47;;;16.92;63.29
45247;BME280;31529;51.158;7.354;2022-07-05T00:30:31;98384.44;;;16.93;63.36
45247;BME280;31529;51.158;7.354;2022-07-05T00:31:07;98387.63;;;16.95;63.43
45247;BME280;31529;51.158;7.354;2022-07-05T00:31:43;98383.03;;;16.95;63.70
45247;BME280;31529;51.158;7.354;2022-07-05T00:32:19;98385.41;;;16.97;63.77
45247;BME280;31529;51.158;7.354;2022-07-05T00:32:55;98390.78;;;16.97;63.30
45247;BME280;31529;51.158;7.354;2022-07-05T00:33:31;98387.78;;;16.98;63.51
45247;BME280;31529;51.158;7.354;2022-07-05T00:34:07;98383.19;;;16.99;63.38
45247;BME280;31529;51.158;7.354;2022-07-05T00:34:43;98385.88;;;16.99;63.56
45247;BME280;31529;51.158;7.354;2022-07-05T00:35:19;98388.56;;;16.99;63.32
45247;BME280;31529;51.158;7.354;2022-07-05T00:35:55;98389.69;;;16.98;63.25
45247;BME280;31529;51.158;7.354;2022-07-05T00:36:31;98387.78;;;16.98;63.65
45247;BME280;31529;51.158;7.354;2022-07-05T00:37:07;98384.31;;;16.98;63.48
45247;BME280;31529;51.158;7.354;2022-07-05T00:37:43;98391.28;;;16.99;63.52
45247;BME280;31529;51.158;7.354;2022-07-05T00:38:19;98385.88;;;16.99;63.59
45247;BME280;31529;51.158;7.354;2022-07-05T00:38:55;98386.66;;;17.00;63.81
45247;BME280;31529;51.158;7.354;2022-07-05T00:39:30;98382.09;;;17.00;63.66
45247;BME280;31529;51.158;7.354;2022-07-05T00:40:06;98385.56;;;17.01;63.96
45247;BME280;31529;51.158;7.354;2022-07-05T00:40:43;98383.97;;;17.00;63.44
45247;BME280;31529;51.158;7.354;2022-07-05T00:41:19;98381.28;;;17.00;63.52
45247;BME280;31529;51.158;7.354;2022-07-05T00:41:55;98380.97;;;17.01;63.98
45247;BME280;31529;51.158;7.354;2022-07-05T00:42:31;98386.34;;;17.01;63.46
45247;BME280;31529;51.158;7.354;2022-07-05T00:43:08;98384.47;;;17.02;63.56
45247;BME280;31529;51.158;7.354;2022-07-05T00:43:57;98385.25;;;17.02;63.38
45247;BME280;31529;51.158;7.354;2022-07-05T00:44:36;98389.53;;;17.03;63.34
45247;BME280;31529;51.158;7.354;2022-07-05T00:45:13;98388.44;;;17.04;63.41
45247;BME280;31529;51.158;7.354;2022-07-05T00:45:49;98388.59;;;17.08;63.41
45247;BME280;31529;51.158;7.354;2022-07-05T00:46:25;98315.44;;;16.66;63.93
45247;BME280;31529;51.158;7.354;2022-07-05T00:47:05;98394.16;;;17.11;63.58
45247;BME280;31529;51.158;7.354;2022-07-05T00:47:42;98390.81;;;17.14;63.54
45247;BME280;31529;51.158;7.354;2022-07-05T00:48:18;98392.88;;;17.17;63.67
45247;BME280;31529;51.158;7.354;2022-07-05T00:48:54;98392.09;;;17.17;63.43
45247;BME280;31529;51.158;7.354;2022-07-05T00:49:31;98393.38;;;17.20;63.40
45247;BME280;31529;51.158;7.354;2022-07-05T00:50:08;98401.16;;;17.21;62.94
45247;BME280;31529;51.158;7.354;2022-07-05T00:50:44;98395.44;;;17.23;62.79
45247;BME280;31529;51.158;7.354;2022-07-05T00:51:20;98395.09;;;17.24;63.00
45247;BME280;31529;51.158;7.354;2022-07-05T00:51:58;98394.78;;;17.26;63.08
45247;BME280;31529;51.158;7.354;2022-07-05T00:52:36;98393.69;;;17.27;62.65
45247;BME280;31529;51.158;7.354;2022-07-05T00:53:12;98397.19;;;17.27;63.13
45247;BME280;31529;51.158;7.354;2022-07-05T00:53:49;98394.16;;;17.29;62.83
45247;BME280;31529;51.158;7.354;2022-07-05T00:54:26;98400.03;;;17.31;62.81
45247;BME280;31529;51.158;7.354;2022-07-05T00:55:03;98396.88;;;17.29;62.68
45247;BME280;31529;51.158;7.354;2022-07-05T00:55:39;98398.44;;;17.30;62.67
45247;BME280;31529;51.158;7.354;2022-07-05T00:56:16;98400.34;;;17.29;62.30
45247;BME280;31529;51.158;7.354;2022-07-05T00:56:54;98397.66;;;17.29;62.73
45247;BME280;31529;51.158;7.354;2022-07-05T00:57:32;98399.56;;;17.29;62.41
45247;BME280;31529;51.158;7.354;2022-07-05T00:58:09;98402.25;;;17.29;62.54
45247;BME280;31529;51.158;7.354;2022-07-05T00:58:45;98402.25;;;17.29;62.63
45247;BME280;31529;51.158;7.354;2022-07-05T00:59:25;98403.34;;;17.28;62.44
45247;BME280;31529;51.158;7.354;2022-07-05T01:00:02;98394.47;;;17.27;63.05
45247;BME280;31529;51.158;7.354;2022-07-05T01:00:40;98394.47;;;17.27;62.80
45247;BME280;31529;51.158;7.354;2022-07-05T01:01:16;98398.28;;;17.26;63.39
45247;BME280;31529;51.158;7.354;2022-07-05T01:01:53;98330.81;;;16.83;62.87
45247;BME280;31529;51.158;7.354;2022-07-05T01:02:29;98395.09;;;17.24;62.89
45247;BME280;31529;51.158;7.354;2022-07-05T01:03:04;98400.50;;;17.24;63.26
45247;BME280;31529;51.158;7.354;2022-07-05T01:03:41;98398.13;;;17.23;63.22
45247;BME280;31529;51.158;7.354;2022-07-05T01:04:17;98398.44;;;17.21;63.23
45247;BME280;31529;51.158;7.354;2022-07-05T01:04:53;98393.38;;;17.20;63.27
45247;BME280;31529;51.158;7.354;2022-07-05T01:05:29;98262.88;;;16.28;62.54
45247;BME280;31529;51.158;7.354;2022-07-05T01:06:07;98396.69;;;17.16;62.92
45247;BME280;31529;51.158;7.354;2022-07-05T01:06:47;98399.72;;;17.15;62.85
45247;BME280;31529;51.158;7.354;2022-07-05T01:07:24;98400.81;;;17.14;62.81
45247;BME280;31529;51.158;7.354;2022-07-05T01:08:01;98401.91;;;17.13;63.57
45247;BME280;31529;51.158;7.354;2022-07-05T01:08:38;98402.25;;;17.11;63.10
45247;BME280;31529;51.158;7.354;2022-07-05T01:09:16;98406.03;;;17.10;63.03
45247;BME280;31529;51.158;7.354;2022-07-05T01:09:54;98398.25;;;17.09;63.44
45247;BME280;31529;51.158;7.354;2022-07-05T01:10:31;98402.09;;;17.08;63.44
45247;BME280;31529;51.158;7.354;2022-07-05T01:11:08;98400.47;;;17.07;63.87
45247;BME280;31529;51.158;7.354;2022-07-05T01:11:48;98403.47;;;17.05;63.92
45247;BME280;31529;51.158;7.354;2022-07-05T01:12:26;98400.78;;;17.05;64.03
45247;BME280;31529;51.158;7.354;2022-07-05T01:13:02;98395.75;;;17.04;63.89
45247;BME280;31529;51.158;7.354;2022-07-05T01:13:38;98399.84;;;17.01;63.73
45247;BME280;31529;51.158;7.354;2022-07-05T01:14:19;98402.53;;;17.01;63.51
45247;BME280;31529;51.158;7.354;2022-07-05T01:14:56;98399.06;;;17.01;64.25
45247;BME280;31529;51.158;7.354;2022-07-05T01:15:33;98397.78;;;16.98;64.13
45247;BME280;31529;51.158;7.354;2022-07-05T01:16:09;98388.88;;;16.97;64.16
45247;BME280;31529;51.158;7.354;2022-07-05T01:16:45;98398.88;;;16.97;64.51
45247;BME280;31529;51.158;7.354;2022-07-05T01:17:22;98403.19;;;16.98;64.60
45247;BME280;31529;51.158;7.354;2022-07-05T01:17:58;98398.88;;;16.97;64.83
45247;BME280;31529;51.158;7.354;2022-07-05T01:18:35;98404.75;;;16.99;64.74
45247;BME280;31529;51.158;7.354;2022-07-05T01:19:11;98398.56;;;16.98;64.59
45247;BME280;31529;51.158;7.354;2022-07-05T01:19:48;98396.66;;;16.99;64.02
45247;BME280;31529;51.158;7.354;2022-07-05T01:20:24;98402.53;;;17.01;64.37
45247;BME280;31529;51.158;7.354;2022-07-05T01:21:01;98404.13;;;17.02;63.99
45247;BME280;31529;51.158;7.354;2022-07-05T01:21:39;98395.75;;;17.04;64.34
45247;BME280;31529;51.158;7.354;2022-07-05T01:22:17;98398.09;;;17.05;64.01
45247;BME280;31529;51.158;7.354;2022-07-05T01:22:55;98391.59;;;17.06;64.09
45247;BME280;31529;51.158;7.354;2022-07-05T01:23:35;98397.47;;;17.08;63.65
45247;BME280;31529;51.158;7.354;2022-07-05T01:24:12;98396.38;;;17.09;63.77
45247;BME280;31529;51.158;7.354;2022-07-05T01:24:49;98397.94;;;17.10;63.96
45247;BME280;31529;51.158;7.354;2022-07-05T01:25:27;98396.84;;;17.11;63.73
45247;BME280;31529;51.158;7.354;2022-07-05T01:26:05;98398.44;;;17.12;63.95
45247;BME280;31529;51.158;7.354;2022-07-05T01:26:43;98394.63;;;17.13;63.63
45247;BME280;31529;51.158;7.354;2022-07-05T01:27:20;98398.91;;;17.14;63.84
45247;BME280;31529;51.158;7.354;2022-07-05T01:27:57;98398.91;;;17.14;63.69
45247;BME280;31529;51.158;7.354;2022-07-05T01:28:34;98397.34;;;17.13;63.67
45247;BME280;31529;51.158;7.354;2022-07-05T01:29:11;98398.44;;;17.12;63.67
45247;BME280;31529;51.158;7.354;2022-07-05T01:29:47;98395.72;;;17.12;63.88
45247;BME280;31529;51.158;7.354;2022-07-05T01:30:23;98392.56;;;17.10;64.12
45247;BME280;31529;51.158;7.354;2022-07-05T01:31:00;98398.25;;;17.09;63.98
45247;BME280;31529;51.158;7.354;2022-07-05T01:31:37;98398.56;;;17.07;64.58
45247;BME280;31529;51.158;7.354;2022-07-05T01:32:14;98397.31;;;17.05;64.86
45247;BME280;31529;51.158;7.354;2022-07-05T01:32:51;98398.44;;;17.04;64.79
45247;BME280;31529;51.158;7.354;2022-07-05T01:33:28;98401.75;;;17.01;65.24
45247;BME280;31529;51.158;7.354;2022-07-05T01:34:05;98397.78;;;16.98;65.05
45247;BME280;31529;51.158;7.354;2022-07-05T01:34:42;98393.00;;;16.95;65.65
45247;BME280;31529;51.158;7.354;2022-07-05T01:35:18;98390.63;;;16.93;65.59
45247;BME280;31529;51.158;7.354;2022-07-05T01:35:58;98398.22;;;16.91;65.56
45247;BME280;31529;51.158;7.354;2022-07-05T01:36:35;98393.16;;;16.90;65.56
45247;BME280;31529;51.158;7.354;2022-07-05T01:37:11;98396.97;;;16.89;65.66
45247;BME280;31529;51.158;7.354;2022-07-05T01:37:48;98400.75;;;16.88;65.94
45247;BME280;31529;51.158;7.354;2022-07-05T01:38:24;98398.06;;;16.88;66.30
45247;BME280;31529;51.158;7.354;2022-07-05T01:39:02;98396.50;;;16.87;65.74
45247;BME280;31529;51.158;7.354;2022-07-05T01:39:39;98397.59;;;16.86;66.10
45247;BME280;31529;51.158;7.354;2022-07-05T01:40:16;98397.91;;;16.84;66.18
45247;BME280;31529;51.158;7.354;2022-07-05T01:40:53;98402.50;;;16.84;66.71
45247;BME280;31529;51.158;7.354;2022-07-05T01:41:29;98392.03;;;16.82;66.39
45247;BME280;31529;51.158;7.354;2022-07-05T01:42:06;98399.28;;;16.82;66.45
45247;BME280;31529;51.158;7.354;2022-07-05T01:42:42;98402.00;;;16.82;67.13
45247;BME280;31529;51.158;7.354;2022-07-05T01:43:19;98400.38;;;16.81;66.63
45247;BME280;31529;51.158;7.354;2022-07-05T01:43:56;98398.03;;;16.79;66.85
45247;BME280;31529;51.158;7.354;2022-07-05T01:44:32;98394.22;;;16.80;67.14
45247;BME280;31529;51.158;7.354;2022-07-05T01:45:08;98396.13;;;16.79;66.95
45247;BME280;31529;51.158;7.354;2022-07-05T01:45:45;98396.91;;;16.80;66.56
45247;BME280;31529;51.158;7.354;2022-07-05T01:46:22;98405.00;;;16.80;66.50
45247;BME280;31529;51.158;7.354;2022-07-05T01:47:02;98401.50;;;16.79;66.98
45247;BME280;31529;51.158;7.354;2022-07-05T01:47:43;98402.28;;;16.80;66.35
45247;BME280;31529;51.158;7.354;2022-07-05T01:48:23;98403.09;;;16.81;66.61
45247;BME280;31529;51.158;7.354;2022-07-05T01:49:05;98405.78;;;16.81;65.97
45247;BME280;31529;51.158;7.354;2022-07-05T01:49:45;98403.41;;;16.79;66.53
45247;BME280;31529;51.158;7.354;2022-07-05T01:50:23;98399.91;;;16.78;66.25
45247;BME280;31529;51.158;7.354;2022-07-05T01:51:07;98403.72;;;16.77;65.92
45247;BME280;31529;51.158;7.354;2022-07-05T01:51:51;98401.03;;;16.77;66.71
45247;BME280;31529;51.158;7.354;2022-07-05T01:52:30;98397.56;;;16.77;66.28
45247;BME280;31529;51.158;7.354;2022-07-05T01:53:08;98402.13;;;16.76;66.16
45247;BME280;31529;51.158;7.354;2022-07-05T01:53:46;98404.81;;;16.76;66.62
45247;BME280;31529;51.158;7.354;2022-07-05T01:54:28;98405.63;;;16.77;66.50
45247;BME280;31529;51.158;7.354;2022-07-05T01:55:04;98399.44;;;16.76;66.58
45247;BME280;31529;51.158;7.354;2022-07-05T01:55:40;98406.72;;;16.76;66.41
45247;BME280;31529;51.158;7.354;2022-07-05T01:56:16;98404.81;;;16.76;66.31
45247;BME280;31529;51.158;7.354;2022-07-05T01:56:52;98402.13;;;16.76;66.22
45247;BME280;31529;51.158;7.354;2022-07-05T01:57:28;98406.72;;;16.76;66.82
45247;BME280;31529;51.158;7.354;2022-07-05T01:58:04;98406.72;;;16.76;66.59
45247;BME280;31529;51.158;7.354;2022-07-05T01:58:42;98407.53;;;16.76;66.89
45247;BME280;31529;51.158;7.354;2022-07-05T01:59:19;98407.53;;;16.76;66.81
45247;BME280;31529;51.158;7.354;2022-07-05T01:59:55;98402.94;;;16.77;66.67
45247;BME280;31529;51.158;7.354;2022-07-05T02:00:31;98402.13;;;16.76;66.26
45247;BME280;31529;51.158;7.354;2022-07-05T02:01:30;98408.00;;;16.78;66.47
45247;BME280;31529;51.158;7.354;2022-07-05T02:02:11;98413.72;;;16.77;66.45
45247;BME280;31529;51.158;7.354;2022-07-05T02:02:47;98410.22;;;16.76;66.64
45247;BME280;31529;51.158;7.354;2022-07-05T02:03:23;98410.22;;;16.76;66.60
45247;BME280;31529;51.158;7.354;2022-07-05T02:03:59;98411.03;;;16.77;66.69
45247;BME280;31529;51.158;7.354;2022-07-05T02:04:36;98409.13;;;16.77;66.61
45247;BME280;31529;51.158;7.354;2022-07-05T02:05:12;98405.31;;;16.78;66.64
45247;BME280;31529;51.158;7.354;2022-07-05T02:05:49;98412.28;;;16.79;66.66
45247;BME280;31529;51.158;7.354;2022-07-05T02:06:25;98341.81;;;16.37;66.35
45247;BME280;31529;51.158;7.354;2022-07-05T02:07:04;98408.81;;;16.79;66.12
45247;BME280;31529;51.158;7.354;2022-07-05T02:07:47;98408.81;;;16.79;66.70
45247;BME280;31529;51.158;7.354;2022-07-05T02:08:28;98405.31;;;16.78;66.22
45247;BME280;31529;51.158;7.354;2022-07-05T02:09:05;98412.91;;;16.76;65.89
45247;BME280;31529;51.158;7.354;2022-07-05T02:09:42;98404.81;;;16.76;66.13
45247;BME280;31529;51.158;7.354;2022-07-05T02:10:18;98405.13;;;16.75;65.86
45247;BME280;31529;51.158;7.354;2022-07-05T02:10:54;98405.94;;;16.75;66.25
45247;BME280;31529;51.158;7.354;2022-07-05T02:11:29;98401.94;;;16.73;65.91
45247;BME280;31529;51.158;7.354;2022-07-05T02:12:06;98401.16;;;16.72;65.97
45247;BME280;31529;51.158;7.354;2022-07-05T02:12:42;98404.66;;;16.73;65.57
45247;BME280;31529;51.158;7.354;2022-07-05T02:13:18;98404.97;;;16.71;65.88
45247;BME280;31529;51.158;7.354;2022-07-05T02:13:57;98406.88;;;16.71;65.68
45247;BME280;31529;51.158;7.354;2022-07-05T02:14:33;98406.06;;;16.70;65.74
45247;BME280;31529;51.158;7.354;2022-07-05T02:15:09;98404.97;;;16.71;66.07
45247;BME280;31529;51.158;7.354;2022-07-05T02:15:45;98417.66;;;16.71;66.23
45247;BME280;31529;51.158;7.354;2022-07-05T02:16:22;98403.88;;;16.72;65.95
45247;BME280;31529;51.158;7.354;2022-07-05T02:16:59;98408.94;;;16.74;66.20
45247;BME280;31529;51.158;7.354;2022-07-05T02:17:36;98414.81;;;16.76;66.39
45247;BME280;31529;51.158;7.354;2022-07-05T02:18:12;98403.41;;;16.79;66.12
45247;BME280;31529;51.158;7.354;2022-07-05T02:18:48;98407.69;;;16.80;66.37
45247;BME280;31529;51.158;7.354;2022-07-05T02:19:24;98405.97;;;16.84;66.10
45247;BME280;31529;51.158;7.354;2022-07-05T02:20:00;98407.28;;;16.87;66.02
45247;BME280;31529;51.158;7.354;2022-07-05T02:20:37;98411.22;;;16.89;66.38
45247;BME280;31529;51.158;7.354;2022-07-05T02:21:14;98407.94;;;16.92;66.09
45247;BME280;31529;51.158;7.354;2022-07-05T02:21:50;98344.53;;;16.55;66.24
45247;BME280;31529;51.158;7.354;2022-07-05T02:22:25;98405.88;;;16.98;66.40
45247;BME280;31529;51.158;7.354;2022-07-05T02:23:01;98409.03;;;17.00;66.22
45247;BME280;31529;51.158;7.354;2022-07-05T02:23:37;98409.53;;;17.02;66.04
45247;BME280;31529;51.158;7.354;2022-07-05T02:24:13;98407.31;;;17.04;65.80
45247;BME280;31529;51.158;7.354;2022-07-05T02:24:49;98412.38;;;17.06;66.33
45247;BME280;31529;51.158;7.354;2022-07-05T02:25:25;98406.66;;;17.07;65.86
45247;BME280;31529;51.158;7.354;2022-07-05T02:26:02;98411.75;;;17.09;65.74
45247;BME280;31529;51.158;7.354;2022-07-05T02:26:38;98404.47;;;17.09;65.87
45247;BME280;31529;51.158;7.354;2022-07-05T02:27:14;98405.25;;;17.10;65.96
45247;BME280;31529;51.158;7.354;2022-07-05T02:27:50;98403.34;;;17.10;66.07
45247;BME280;31529;51.158;7.354;2022-07-05T02:28:27;98405.25;;;17.10;66.08
45247;BME280;31529;51.158;7.354;2022-07-05T02:29:04;98404.94;;;17.11;65.55
45247;BME280;31529;51.158;7.354;2022-07-05T02:29:40;98405.25;;;17.10;66.12
45247;BME280;31529;51.158;7.354;2022-07-05T02:30:16;98403.66;;;17.09;65.84
45247;BME280;31529;51.158;7.354;2022-07-05T02:30:52;98405.88;;;17.07;66.21
45247;BME280;31529;51.158;7.354;2022-07-05T02:31:28;98406.66;;;17.07;66.46
45247;BME280;31529;51.158;7.354;2022-07-05T02:32:04;98406.66;;;17.07;66.10
45247;BME280;31529;51.158;7.354;2022-07-05T02:32:40;98406.19;;;17.05;66.08
45247;BME280;31529;51.158;7.354;2022-07-05T02:33:16;98397.31;;;17.05;66.68
45247;BME280;31529;51.158;7.354;2022-07-05T02:33:52;98406.19;;;17.05;66.32
45247;BME280;31529;51.158;7.354;2022-07-05T02:34:28;98416.97;;;17.05;66.46
45247;BME280;31529;51.158;7.354;2022-07-05T02:35:04;98407.31;;;17.04;66.84
45247;BME280;31529;51.158;7.354;2022-07-05T02:35:41;98407.31;;;17.04;66.67
45247;BME280;31529;51.158;7.354;2022-07-05T02:36:17;98413.47;;;17.05;67.02
45247;BME280;31529;51.158;7.354;2022-07-05T02:36:53;98408.41;;;17.03;66.78
45247;BME280;31529;51.158;7.354;2022-07-05T02:37:29;98403.81;;;17.04;66.95
45247;BME280;31529;51.158;7.354;2022-07-05T02:38:05;98411.09;;;17.03;66.93
45247;BME280;31529;51.158;7.354;2022-07-05T02:38:41;98404.91;;;17.03;66.96
45247;BME280;31529;51.158;7.354;2022-07-05T02:39:17;98403.00;;;17.03;67.33
45247;BME280;31529;51.158;7.354;2022-07-05T02:39:54;98411.09;;;17.03;67.34
45247;BME280;31529;51.158;7.354;2022-07-05T02:40:30;98412.69;;;17.04;67.25
45247;BME280;31529;51.158;7.354;2022-07-05T02:41:06;98408.41;;;17.03;67.38
45247;BME280;31529;51.158;7.354;2022-07-05T02:41:43;98412.69;;;17.04;66.91
45247;BME280;31529;51.158;7.354;2022-07-05T02:42:19;98416.97;;;17.05;67.67
45247;BME280;31529;51.158;7.354;2022-07-05T02:42:55;98407.00;;;17.06;67.07
45247;BME280;31529;51.158;7.354;2022-07-05T02:43:32;98407.78;;;17.06;67.29
45247;BME280;31529;51.158;7.354;2022-07-05T02:44:11;98416.34;;;17.08;67.03
45247;BME280;31529;51.158;7.354;2022-07-05T02:44:47;98410.97;;;17.08;67.41
45247;BME280;31529;51.158;7.354;2022-07-05T02:45:24;98410.66;;;17.10;67.54
45247;BME280;31529;51.158;7.354;2022-07-05T02:46:00;98418.44;;;17.11;66.71
45247;BME280;31529;51.158;7.354;2022-07-05T02:46:36;98418.44;;;17.11;67.08
45247;BME280;31529;51.158;7.354;2022-07-05T02:47:13;98416.22;;;17.13;66.76
45247;BME280;31529;51.158;7.354;2022-07-05T02:47:49;98423.16;;;17.14;67.24
45247;BME280;31529;51.158;7.354;2022-07-05T02:48:25;98409.22;;;17.12;66.72
45247;BME280;31529;51.158;7.354;2022-07-05T02:49:01;98414.59;;;17.12;66.88
45247;BME280;31529;51.158;7.354;2022-07-05T02:49:37;98415.72;;;17.11;67.29
45247;BME280;31529;51.158;7.354;2022-07-05T02:50:13;98411.13;;;17.12;66.84
45247;BME280;31529;51.158;7.354;2022-07-05T02:50:49;98415.38;;;17.13;67.06
45247;BME280;31529;51.158;7.354;2022-07-05T02:51:25;98410.81;;;17.13;66.80
45247;BME280;31529;51.158;7.354;2022-07-05T02:52:01;98410.81;;;17.13;66.81
45247;BME280;31529;51.158;7.354;2022-07-05T02:52:37;98412.38;;;17.14;67.06
45247;BME280;31529;51.158;7.354;2022-07-05T02:53:13;98413.19;;;17.15;66.86
45247;BME280;31529;51.158;7.354;2022-07-05T02:53:49;98412.84;;;17.16;67.13
45247;BME280;31529;51.158;7.354;2022-07-05T02:54:25;98414.47;;;17.17;67.31
45247;BME280;31529;51.158;7.354;2022-07-05T02:55:01;98411.75;;;17.17;67.33
45247;BME280;31529;51.158;7.354;2022-07-05T02:55:40;98422.25;;;17.19;67.30
45247;BME280;31529;51.158;7.354;2022-07-05T02:56:16;98418.41;;;17.20;66.98
45247;BME280;31529;51.158;7.354;2022-07-05T02:56:52;98415.41;;;17.22;67.06
45247;BME280;31529;51.158;7.354;2022-07-05T02:57:28;98419.72;;;17.23;66.97
45247;BME280;31529;51.158;7.354;2022-07-05T02:58:04;98421.28;;;17.24;67.02
45247;BME280;31529;51.158;7.354;2022-07-05T02:58:40;98423.66;;;17.25;66.82
45247;BME280;31529;51.158;7.354;2022-07-05T02:59:16;98417.50;;;17.25;66.89
45247;BME280;31529;51.158;7.354;2022-07-05T02:59:52;98413.66;;;17.26;67.24
45247;BME280;31529;51.158;7.354;2022-07-05T03:00:29;98411.44;;;17.28;66.73
45247;BME280;31529;51.158;7.354;2022-07-05T03:01:05;98422.25;;;17.28;67.05
45247;BME280;31529;51.158;7.354;2022-07-05T03:01:41;98414.16;;;17.28;67.44
45247;BME280;31529;51.158;7.354;2022-07-05T03:02:17;98416.84;;;17.28;67.08
45247;BME280;31529;51.158;7.354;2022-07-05T03:02:53;98419.53;;;17.28;66.81
45247;BME280;31529;51.158;7.354;2022-07-05T03:03:29;98415.28;;;17.27;67.14
45247;BME280;31529;51.158;7.354;2022-07-05T03:04:05;98413.97;;;17.24;66.93
45247;BME280;31529;51.158;7.354;2022-07-05T03:04:41;98411.94;;;17.21;66.65
45247;BME280;31529;51.158;7.354;2022-07-05T03:05:17;98417.94;;;17.18;67.22
45247;BME280;31529;51.158;7.354;2022-07-05T03:05:53;98425.56;;;17.16;67.03
45247;BME280;31529;51.158;7.354;2022-07-05T03:06:29;98419.22;;;17.12;66.97
45247;BME280;31529;51.158;7.354;2022-07-05T03:07:05;98420.66;;;17.09;67.06
45247;BME280;31529;51.158;7.354;2022-07-05T03:07:41;98413.66;;;17.08;67.01
45247;BME280;31529;51.158;7.354;2022-07-05T03:08:17;98426.66;;;17.06;67.69
45247;BME280;31529;51.158;7.354;2022-07-05T03:08:53;98426.97;;;17.05;67.67
45247;BME280;31529;51.158;7.354;2022-07-05T03:09:29;98419.19;;;17.03;67.54
45247;BME280;31529;51.158;7.354;2022-07-05T03:10:05;98416.81;;;17.02;68.12
45247;BME280;31529;51.158;7.354;2022-07-05T03:10:42;98413.63;;;17.00;67.99
45247;BME280;31529;51.158;7.354;2022-07-05T03:11:18;98413.63;;;17.00;68.13
45247;BME280;31529;51.158;7.354;2022-07-05T03:11:55;98416.66;;;16.98;68.63
45247;BME280;31529;51.158;7.354;2022-07-05T03:12:32;98413.16;;;16.97;68.42
45247;BME280;31529;51.158;7.354;2022-07-05T03:13:08;98416.66;;;16.98;68.26
45247;BME280;31529;51.158;7.354;2022-07-05T03:13:44;98412.34;;;16.97;68.85
45247;BME280;31529;51.158;7.354;2022-07-05T03:14:22;98412.06;;;16.98;68.52
45247;BME280;31529;51.158;7.354;2022-07-05T03:14:57;98418.22;;;16.99;68.40